Time;durP1;ratioP1;P1;durP2;ratioP2;P2;SDS_P1;SDS_P2;PMS_P1;PMS_P2;Temp;Humidity;BMP_temperature;BMP_pressure;BME280_temperature;BME280_humidity;BME280_pressure;Samples;Min_cycle;Max_cycle;Signal;HPM_P1;HPM_P2
2023/04/01 00:01:13;;;;;;;2.90;1.00;;;;;;;10.20;93.40;98750.03;5054212;28;20601;-81
2023/04/01 00:03:40;;;;;;;5.23;1.37;;;;;;;10.20;93.61;98749.19;5054048;28;20229;-81
2023/04/01 00:06:07;;;;;;;2.07;0.90;;;;;;;10.19;93.06;98752.84;5053368;28;20225;-80
2023/04/01 00:08:33;;;;;;;2.53;1.20;;;;;;;10.20;93.16;98750.03;5053674;28;20228;-81
2023/04/01 00:11:00;;;;;;;3.23;1.00;;;;;;;10.18;93.22;98746.66;5053258;28;20642;-80
2023/04/01 00:13:27;;;;;;;2.17;0.70;;;;;;;10.17;93.18;98747.63;5053407;28;20596;-81
2023/04/01 00:15:54;;;;;;;3.40;1.00;;;;;;;10.16;93.25;98748.59;5053332;28;20212;-81
2023/04/01 00:18:22;;;;;;;4.97;0.77;;;;;;;10.17;92.65;98758.28;5053528;28;20566;-80
2023/04/01 00:20:51;;;;;;;2.53;0.80;;;;;;;10.16;92.38;98756.59;5054193;28;20206;-81
2023/04/01 00:23:18;;;;;;;2.90;0.80;;;;;;;10.20;92.14;98749.19;5053699;28;20573;-81
2023/04/01 00:25:47;;;;;;;1.67;0.70;;;;;;;10.22;91.42;98753.38;5053736;28;20208;-80
2023/04/01 00:28:14;;;;;;;1.50;0.83;;;;;;;10.22;90.97;98748.06;5053945;28;20208;-80
2023/04/01 00:30:41;;;;;;;3.77;0.80;;;;;;;10.22;91.02;98739.22;5053418;28;20320;-80
2023/04/01 00:33:08;;;;;;;2.03;0.60;;;;;;;10.21;90.59;98746.38;5053562;28;20205;-80
2023/04/01 00:35:36;;;;;;;1.57;0.53;;;;;;;10.23;90.43;98749.72;5053459;28;20218;-79
2023/04/01 00:38:03;;;;;;;2.07;0.50;;;;;;;10.22;90.44;98742.72;5053827;28;20267;-79
2023/04/01 00:40:32;;;;;;;1.97;0.60;;;;;;;10.21;90.32;98751.69;5053545;28;20210;-80
2023/04/01 00:43:00;;;;;;;1.93;0.60;;;;;;;10.22;90.10;98748.06;5053272;28;20209;-80
2023/04/01 00:45:31;;;;;;;1.33;0.70;;;;;;;10.22;89.79;98753.38;5053484;28;20578;-81
2023/04/01 00:48:01;;;;;;;1.67;0.87;;;;;;;10.22;89.71;98750.72;5053688;28;20224;-80
2023/04/01 00:50:31;;;;;;;1.23;0.50;;;;;;;10.22;89.37;98756.03;5053555;28;20225;-79
2023/04/01 00:53:00;;;;;;;1.60;0.50;;;;;;;10.24;88.95;98753.22;5053341;28;20186;-80
2023/04/01 00:55:29;;;;;;;1.47;0.40;;;;;;;10.22;89.01;98747.22;5053944;28;20224;-80
2023/04/01 00:57:59;;;;;;;2.33;0.60;;;;;;;10.25;88.63;98752.25;5053759;28;20549;-80
2023/04/01 01:00:26;;;;;;;2.73;0.67;;;;;;;10.26;88.33;98757.44;5053378;28;20202;-79
2023/04/01 01:02:53;;;;;;;3.07;0.73;;;;;;;10.25;88.11;98753.09;5053018;28;20213;-80
2023/04/01 01:05:26;;;;;;;2.17;0.33;;;;;;;10.27;87.93;98760.94;5053094;28;20661;-80
2023/04/01 01:08:04;;;;;;;3.17;0.60;;;;;;;10.24;88.25;98759.41;5053158;28;20217;-80
2023/04/01 01:10:34;;;;;;;3.90;0.50;;;;;;;10.24;87.77;98761.22;5053208;28;20218;-80
2023/04/01 01:13:11;;;;;;;1.60;0.40;;;;;;;10.25;87.46;98755.75;5052951;28;20210;-80
2023/04/01 01:15:46;;;;;;;2.10;0.47;;;;;;;10.26;87.67;98762.75;5053074;28;20190;-81
2023/04/01 01:18:20;;;;;;;0.80;0.40;;;;;;;10.23;87.81;98756.88;5053124;28;20193;-80
2023/04/01 01:21:20;;;;;;;1.83;0.50;;;;;;;10.21;87.86;98756.22;5053241;28;20206;-80
2023/04/01 01:24:15;;;;;;;1.40;0.30;;;;;;;10.18;88.18;98751.13;5052784;28;20229;-80
2023/04/01 01:26:59;;;;;;;1.37;0.40;;;;;;;10.16;88.39;98747.75;5037451;28;20586;-79
2023/04/01 01:29:43;;;;;;;3.43;0.80;;;;;;;10.16;88.67;98758.41;5052566;28;20187;-80
2023/04/01 01:32:21;;;;;;;2.20;0.50;;;;;;;10.14;88.55;98744.41;5052058;28;20207;-80
2023/04/01 01:34:55;;;;;;;0.60;0.30;;;;;;;10.12;89.33;98746.38;5052214;28;20225;-80
2023/04/01 01:37:28;;;;;;;1.37;0.33;;;;;;;10.09;89.18;98747.47;5052024;28;20602;-80
2023/04/01 01:39:57;;;;;;;1.50;0.50;;;;;;;10.08;89.60;98738.66;5052136;28;20565;-80
2023/04/01 01:42:26;;;;;;;1.77;0.33;;;;;;;10.07;90.20;98744.94;5051887;28;20686;-80
2023/04/01 01:44:54;;;;;;;1.23;0.23;;;;;;;10.07;90.55;98738.78;5051689;28;20230;-80
2023/04/01 01:47:23;;;;;;;2.73;0.43;;;;;;;10.03;90.46;98740.09;5051844;28;20212;-80
2023/04/01 01:49:53;;;;;;;0.90;0.50;;;;;;;10.00;90.73;98743.84;5051825;28;20234;-81
2023/04/01 01:52:19;;;;;;;4.27;0.90;;;;;;;9.98;91.45;98750.28;5051667;28;20232;-80
2023/04/01 01:54:52;;;;;;;1.60;0.50;;;;;;;9.96;91.25;98745.09;5051362;28;20225;-80
2023/04/01 01:57:21;;;;;;;2.37;0.50;;;;;;;9.95;91.66;98743.41;5051592;28;20212;-80
2023/04/01 01:59:49;;;;;;;1.03;0.37;;;;;;;9.94;92.17;98746.22;5051462;28;20201;-80
2023/04/01 02:02:17;;;;;;;1.27;0.47;;;;;;;9.91;92.17;98749.16;5051746;28;20291;-79
2023/04/01 02:04:46;;;;;;;1.37;0.33;;;;;;;9.91;92.04;98744.69;5051253;28;20644;-80
2023/04/01 02:07:19;;;;;;;1.27;0.50;;;;;;;9.90;92.07;98750.13;5051428;28;20635;-80
2023/04/01 02:09:45;;;;;;;0.80;0.30;;;;;;;9.88;92.09;98749.44;5051272;28;20190;-80
2023/04/01 02:12:17;;;;;;;1.43;0.50;;;;;;;9.87;92.57;98748.59;5051263;28;20233;-81
2023/04/01 02:14:48;;;;;;;1.20;0.50;;;;;;;9.89;92.16;98761.75;5051461;28;20229;-80
2023/04/01 02:17:17;;;;;;;1.33;0.40;;;;;;;9.87;92.17;98747.75;5051315;28;20189;-80
2023/04/01 02:19:48;;;;;;;1.57;0.63;;;;;;;9.86;92.14;98757.53;5050898;28;20213;-80
2023/04/01 02:22:19;;;;;;;0.90;0.40;;;;;;;9.83;92.39;98752.53;5051360;28;20206;-80
2023/04/01 02:24:46;;;;;;;1.07;0.30;;;;;;;9.84;91.99;98745.38;5052929;28;20713;-81
2023/04/01 02:27:15;;;;;;;1.97;0.60;;;;;;;9.85;91.91;98757.69;5063313;28;20202;-80
2023/04/01 02:29:41;;;;;;;1.57;0.30;;;;;;;9.84;92.05;98753.38;5054563;28;20205;-80
2023/04/01 02:32:10;;;;;;;1.60;0.33;;;;;;;9.84;91.96;98748.03;5051395;28;20233;-80
2023/04/01 02:34:37;;;;;;;3.70;0.50;;;;;;;9.85;91.86;98758.53;5051290;28;20725;-80
2023/04/01 02:37:04;;;;;;;1.70;0.60;;;;;;;9.85;92.33;98755.88;5051371;28;20205;-80
2023/04/01 02:39:31;;;;;;;1.40;0.50;;;;;;;9.86;91.78;98746.91;5052823;28;20612;-80
2023/04/01 02:41:57;;;;;;;0.53;0.30;;;;;;;9.88;91.98;98757.41;5051340;28;20203;-80
2023/04/01 02:44:25;;;;;;;1.73;0.57;;;;;;;9.86;92.34;98749.56;5050662;28;20701;-81
2023/04/01 02:46:52;;;;;;;1.87;0.50;;;;;;;9.86;92.65;98743.41;5051625;28;20205;-80
2023/04/01 02:49:19;;;;;;;0.70;0.30;;;;;;;9.85;92.25;98761.22;5051107;28;20201;-81
2023/04/01 02:51:51;;;;;;;3.03;0.50;;;;;;;9.85;92.51;98745.25;5051798;28;20433;-81
2023/04/01 02:54:19;;;;;;;1.47;0.40;;;;;;;9.83;92.84;98757.00;5052629;28;20245;-80
2023/04/01 02:56:47;;;;;;;1.60;0.43;;;;;;;9.84;93.00;98764.00;5056287;28;20272;-81
2023/04/01 02:59:15;;;;;;;0.70;0.20;;;;;;;9.84;93.15;98758.69;5055660;28;20673;-81
2023/04/01 03:01:44;;;;;;;1.43;0.50;;;;;;;9.81;93.18;98754.47;5054590;28;20213;-81
2023/04/01 03:04:12;;;;;;;2.90;0.53;;;;;;;9.81;92.76;98761.59;5054810;28;20714;-80
2023/04/01 03:06:39;;;;;;;1.33;0.50;;;;;;;9.79;93.23;98759.09;5054834;28;20227;-79
2023/04/01 03:09:07;;;;;;;0.90;0.50;;;;;;;9.76;93.62;98759.34;5054684;28;20209;-80
2023/04/01 03:11:35;;;;;;;1.33;0.40;;;;;;;9.78;93.32;98759.22;5054428;28;20225;-80
2023/04/01 03:14:03;;;;;;;2.27;0.50;;;;;;;9.76;93.48;98762.00;5054154;28;20229;-81
2023/04/01 03:16:31;;;;;;;2.10;0.40;;;;;;;9.77;93.26;98757.53;5054440;28;20213;-81
2023/04/01 03:19:01;;;;;;;1.37;0.50;;;;;;;9.77;93.44;98762.84;5054325;28;20220;-80
2023/04/01 03:21:29;;;;;;;1.23;0.30;;;;;;;9.78;94.07;98764.53;5054350;28;20229;-80
2023/04/01 03:23:57;;;;;;;0.80;0.50;;;;;;;9.74;93.48;98764.81;5053903;28;20272;-81
2023/04/01 03:26:27;;;;;;;2.30;0.50;;;;;;;9.74;94.11;98775.44;5054807;28;20788;-81
2023/04/01 03:28:58;;;;;;;0.63;0.30;;;;;;;9.73;94.25;98772.91;5054766;28;20190;-80
2023/04/01 03:31:25;;;;;;;1.40;0.50;;;;;;;9.72;94.27;98764.09;5054016;28;20230;-80
2023/04/01 03:33:52;;;;;;;1.80;0.43;;;;;;;9.71;94.18;98769.56;5053997;28;20635;-80
2023/04/01 03:36:24;;;;;;;1.47;0.50;;;;;;;9.70;94.64;98760.75;5053669;28;20316;-80
2023/04/01 03:38:55;;;;;;;1.17;0.50;;;;;;;9.70;94.32;98767.88;5053908;28;20228;-81
2023/04/01 03:41:23;;;;;;;2.27;0.60;;;;;;;9.69;94.81;98777.66;5054102;28;20192;-81
2023/04/01 03:43:51;;;;;;;1.37;0.50;;;;;;;9.70;94.57;98771.38;5058235;28;20233;-81
2023/04/01 03:46:20;;;;;;;1.17;0.30;;;;;;;9.70;94.70;98773.19;5055329;28;20289;-81
2023/04/01 03:48:49;;;;;;;1.10;0.40;;;;;;;9.69;94.38;98777.66;5056793;28;20259;-81
2023/04/01 03:51:17;;;;;;;0.80;0.40;;;;;;;9.69;94.22;98780.31;5055011;28;20236;-81
2023/04/01 03:53:45;;;;;;;2.20;0.40;;;;;;;9.70;94.47;98778.50;5057249;28;20242;-80
2023/04/01 03:56:16;;;;;;;0.73;0.40;;;;;;;9.71;94.62;98780.19;5056359;28;20198;-81
2023/04/01 03:58:43;;;;;;;0.50;0.30;;;;;;;9.70;94.22;98778.50;5056213;28;20278;-81
2023/04/01 04:01:20;;;;;;;2.63;0.43;;;;;;;9.71;94.24;98781.03;5056055;28;20708;-80
2023/04/01 04:03:48;;;;;;;1.10;0.40;;;;;;;9.70;94.17;98774.03;5056417;28;20225;-81
2023/04/01 04:06:16;;;;;;;0.80;0.40;;;;;;;9.71;93.26;98775.72;5054103;28;20236;-80
2023/04/01 04:08:44;;;;;;;1.40;0.50;;;;;;;9.71;93.50;98783.69;5057043;28;20280;-80
2023/04/01 04:11:12;;;;;;;5.10;0.50;;;;;;;9.72;93.54;98781.88;5055706;28;20197;-80
2023/04/01 04:13:42;;;;;;;2.83;0.70;;;;;;;9.70;93.91;98778.50;5056323;28;20225;-80
2023/04/01 04:16:10;;;;;;;1.07;0.43;;;;;;;9.71;93.64;98788.16;5055791;28;20214;-80
2023/04/01 04:18:38;;;;;;;1.53;0.50;;;;;;;9.71;93.67;98789.00;5057329;28;20202;-80
2023/04/01 04:21:08;;;;;;;1.30;0.50;;;;;;;9.70;93.53;98784.66;5057011;28;20817;-79
2023/04/01 04:23:37;;;;;;;2.60;0.60;;;;;;;9.70;93.45;98789.97;5055863;28;20229;-80
2023/04/01 04:26:06;;;;;;;1.87;0.60;;;;;;;9.70;93.56;98783.81;5056925;28;20218;-80
2023/04/01 04:28:35;;;;;;;1.17;0.40;;;;;;;9.70;93.78;98789.97;5056344;28;20221;-81
2023/04/01 04:31:04;;;;;;;1.13;0.50;;;;;;;9.69;94.03;98782.13;5057243;28;20213;-81
2023/04/01 04:33:32;;;;;;;1.23;0.50;;;;;;;9.70;93.86;98786.47;5055887;28;20683;-81
2023/04/01 04:36:00;;;;;;;4.83;0.80;;;;;;;9.70;94.65;98795.28;5056993;28;20210;-81
2023/04/01 04:38:30;;;;;;;1.63;0.60;;;;;;;9.70;93.99;98795.28;5056600;28;20661;-80
2023/04/01 04:40:57;;;;;;;1.37;0.53;;;;;;;9.71;94.17;98802.28;5058228;28;20206;-80
2023/04/01 04:43:25;;;;;;;1.73;0.50;;;;;;;9.71;94.59;98801.44;5057086;28;20222;-80
2023/04/01 04:45:54;;;;;;;2.80;0.70;;;;;;;9.68;94.84;98802.56;5056589;28;20216;-80
2023/04/01 04:48:23;;;;;;;3.03;0.50;;;;;;;9.68;94.49;98801.72;5056422;28;20217;-80
2023/04/01 04:50:51;;;;;;;1.20;0.40;;;;;;;9.67;94.79;98798.22;5057262;28;20239;-80
2023/04/01 04:53:20;;;;;;;1.57;0.70;;;;;;;9.64;94.76;98801.19;5056750;28;20253;-80
2023/04/01 04:55:48;;;;;;;1.17;0.70;;;;;;;9.65;95.33;98799.34;5056732;28;20208;-81
2023/04/01 04:58:19;;;;;;;0.83;0.50;;;;;;;9.64;95.61;98801.19;5055938;28;20213;-80
2023/04/01 05:00:47;;;;;;;1.07;0.50;;;;;;;9.62;95.19;98803.13;5057526;28;20711;-80
2023/04/01 05:03:18;;;;;;;2.67;0.73;;;;;;;9.62;95.52;98810.25;5057783;28;20205;-81
2023/04/01 05:05:52;;;;;;;2.60;0.93;;;;;;;9.59;96.06;98814.03;5057406;28;20182;-80
2023/04/01 05:08:19;;;;;;;3.13;0.77;;;;;;;9.58;96.53;98808.84;5057470;28;20277;-80
2023/04/01 05:10:47;;;;;;;4.13;1.00;;;;;;;9.56;96.47;98808.97;5057844;28;20232;-80
2023/04/01 05:13:15;;;;;;;2.47;1.10;;;;;;;9.55;96.54;98807.28;5056349;28;20225;-80
2023/04/01 05:15:42;;;;;;;1.43;0.70;;;;;;;9.54;96.89;98807.44;5056835;28;20225;-80
2023/04/01 05:18:10;;;;;;;4.43;0.90;;;;;;;9.52;97.22;98815.53;5056416;28;20279;-80
2023/04/01 05:20:38;;;;;;;2.40;0.90;;;;;;;9.52;97.08;98812.88;5056896;28;20275;-81
2023/04/01 05:23:06;;;;;;;2.47;0.80;;;;;;;9.52;97.69;98812.03;5056119;28;20240;-80
2023/04/01 05:25:33;;;;;;;1.87;0.53;;;;;;;9.49;97.44;98814.97;5059753;28;20206;-80
2023/04/01 05:28:01;;;;;;;2.40;0.90;;;;;;;9.49;97.82;98818.47;5057560;28;20751;-81
2023/04/01 05:30:28;;;;;;;2.57;0.60;;;;;;;9.48;98.25;98816.81;5057145;28;20212;-80
2023/04/01 05:32:56;;;;;;;2.27;0.90;;;;;;;9.48;97.76;98827.44;5057371;28;20229;-80
2023/04/01 05:35:24;;;;;;;2.07;0.80;;;;;;;9.46;98.69;98820.56;5057390;28;20216;-80
2023/04/01 05:37:56;;;;;;;1.57;1.07;;;;;;;9.45;98.33;98830.34;5057323;28;20202;-80
2023/04/01 05:40:23;;;;;;;2.33;0.80;;;;;;;9.43;98.39;98824.31;5055465;28;20227;-80
2023/04/01 05:42:50;;;;;;;2.77;0.77;;;;;;;9.41;98.89;98820.97;5055461;28;20216;-80
2023/04/01 05:45:18;;;;;;;2.97;0.70;;;;;;;9.44;99.22;98828.66;5055808;28;20236;-79
2023/04/01 05:47:46;;;;;;;1.27;0.77;;;;;;;9.41;99.16;98823.63;5055935;28;20300;-80
2023/04/01 05:50:16;;;;;;;1.57;0.90;;;;;;;9.43;99.09;98826.97;5055776;28;20206;-81
2023/04/01 05:52:44;;;;;;;2.67;0.97;;;;;;;9.44;99.95;98823.34;5055403;28;20276;-79
2023/04/01 05:55:13;;;;;;;1.03;0.80;;;;;;;9.43;100.00;98829.63;5056515;28;20260;-81
2023/04/01 05:57:49;;;;;;;1.77;1.07;;;;;;;9.44;100.00;98830.47;5057129;28;20204;-80
2023/04/01 06:00:17;;;;;;;1.63;0.90;;;;;;;9.45;99.97;98826.84;5056439;28;20319;-80
2023/04/01 06:02:47;;;;;;;2.63;1.10;;;;;;;9.49;100.00;98838.91;5057268;28;20221;-80
2023/04/01 06:05:18;;;;;;;3.93;0.90;;;;;;;9.50;100.00;98841.41;5055790;28;20340;-80
2023/04/01 06:07:45;;;;;;;3.10;0.80;;;;;;;9.50;100.00;98836.06;5056923;28;20300;-80
2023/04/01 06:10:19;;;;;;;2.20;0.70;;;;;;;9.51;100.00;98835.09;5055182;28;20209;-80
2023/04/01 06:13:03;;;;;;;1.93;0.97;;;;;;;9.53;100.00;98837.63;5055349;28;20206;-80
2023/04/01 06:15:41;;;;;;;2.47;0.90;;;;;;;9.56;100.00;98846.19;5055371;28;20229;-80
2023/04/01 06:18:43;;;;;;;1.43;0.90;;;;;;;9.58;100.00;98844.22;5054018;28;20205;-80
2023/04/01 06:21:29;;;;;;;2.63;0.97;;;;;;;9.60;100.00;98846.75;5054722;28;20213;-81
2023/04/01 06:24:06;;;;;;;2.40;0.80;;;;;;;9.62;100.00;98844.81;5054997;28;20228;-80
2023/04/01 06:26:42;;;;;;;2.23;1.00;;;;;;;9.65;100.00;98856.03;5054059;28;20205;-81
2023/04/01 06:29:47;;;;;;;2.63;0.83;;;;;;;9.67;100.00;98848.72;5055093;28;20223;-80
2023/04/01 06:32:32;;;;;;;2.50;0.90;;;;;;;9.70;100.00;98847.63;4996833;28;20227;-81
2023/04/01 06:35:32;;;;;;;1.47;0.80;;;;;;;9.74;100.00;98860.50;5056101;28;20831;-80
2023/04/01 06:38:41;;;;;;;1.90;0.70;;;;;;;9.78;100.00;98860.25;5046802;28;20206;-80
2023/04/01 06:41:59;;;;;;;3.37;0.83;;;;;;;9.80;100.00;98859.13;5050044;28;20292;-81
2023/04/01 06:44:36;;;;;;;1.57;0.90;;;;;;;9.83;100.00;98858.03;5059190;28;20309;-80
2023/04/01 06:47:13;;;;;;;2.40;0.63;;;;;;;9.84;100.00;98859.72;5058666;28;20280;-80
2023/04/01 06:49:51;;;;;;;2.90;0.90;;;;;;;9.87;100.00;98870.06;5058983;28;20205;-80
2023/04/01 06:52:27;;;;;;;5.40;1.30;;;;;;;9.88;100.00;98863.75;5058649;28;20206;-81
2023/04/01 06:55:04;;;;;;;2.60;1.00;;;;;;;9.92;100.00;98859.84;5058198;28;20228;-80
2023/04/01 06:57:38;;;;;;;2.60;1.17;;;;;;;9.94;100.00;98863.22;5059764;28;20420;-80
2023/04/01 07:00:15;;;;;;;1.70;0.73;;;;;;;9.94;100.00;98863.22;5057974;28;20205;-80
2023/04/01 07:02:53;;;;;;;1.73;0.90;;;;;;;9.95;100.00;98863.09;5059308;28;20204;-83
2023/04/01 07:05:22;;;;;;;2.13;1.23;;;;;;;10.00;100.00;98871.50;5058820;28;20232;-80
2023/04/01 07:07:55;;;;;;;2.73;0.90;;;;;;;10.03;100.00;98873.06;5059553;28;20209;-80
2023/04/01 07:10:35;;;;;;;1.53;0.90;;;;;;;10.04;100.00;98869.38;5060568;28;20222;-80
2023/04/01 07:13:09;;;;;;;1.87;0.80;;;;;;;10.08;100.00;98878.78;5061381;28;20297;-80
2023/04/01 07:15:40;;;;;;;2.07;1.00;;;;;;;10.10;100.00;98872.34;5060271;28;20218;-80
2023/04/01 07:18:16;;;;;;;1.90;1.03;;;;;;;10.13;100.00;98881.88;5061720;28;20229;-80
2023/04/01 07:20:43;;;;;;;2.77;1.00;;;;;;;10.16;100.00;98886.09;5062226;28;20220;-80
2023/04/01 07:23:17;;;;;;;2.30;0.93;;;;;;;10.19;100.00;98888.50;5061942;28;20213;-80
2023/04/01 07:25:48;;;;;;;1.67;0.60;;;;;;;10.21;100.00;98879.38;5063307;28;20584;-79
2023/04/01 07:28:17;;;;;;;1.47;0.77;;;;;;;10.25;100.00;98887.94;5061999;28;20248;-79
2023/04/01 07:31:00;;;;;;;2.07;0.90;;;;;;;10.28;100.00;98891.19;5061762;28;20581;-79
2023/04/01 07:33:33;;;;;;;2.17;0.80;;;;;;;10.32;100.00;98889.94;5060465;28;20427;-80
2023/04/01 07:36:11;;;;;;;1.93;0.70;;;;;;;10.37;100.00;98895.69;5061673;28;20210;-79
2023/04/01 07:38:50;;;;;;;1.90;0.70;;;;;;;10.40;100.00;98899.84;5061646;28;20189;-80
2023/04/01 07:41:28;;;;;;;1.20;0.77;;;;;;;10.46;100.00;98898.47;5060922;28;20208;-79
2023/04/01 07:44:10;;;;;;;2.00;0.50;;;;;;;10.49;100.00;98901.72;5060998;28;20226;-79
2023/04/01 07:47:05;;;;;;;1.03;0.50;;;;;;;10.50;100.00;98910.53;5060740;28;20744;-79
2023/04/01 07:49:42;;;;;;;2.40;0.80;;;;;;;10.50;100.00;98903.38;5059793;28;20237;-78
2023/04/01 07:52:17;;;;;;;0.80;0.50;;;;;;;10.55;100.00;98913.63;5075377;28;20295;-80
2023/04/01 07:54:50;;;;;;;1.23;0.60;;;;;;;10.57;100.00;98919.66;5078977;28;20299;-80
2023/04/01 07:57:22;;;;;;;2.13;0.60;;;;;;;10.57;100.00;98911.66;5078861;28;20725;-80
2023/04/01 08:00:00;;;;;;;1.43;0.60;;;;;;;10.59;100.00;98920.34;5079790;28;20229;-80
2023/04/01 08:02:41;;;;;;;2.40;0.77;;;;;;;10.60;100.00;98922.00;5080198;28;20613;-80
2023/04/01 08:05:21;;;;;;;1.67;0.67;;;;;;;10.62;100.00;98923.56;5079503;28;20317;-80
2023/04/01 08:07:55;;;;;;;1.30;0.63;;;;;;;10.65;100.00;98919.78;5080473;28;20221;-79
2023/04/01 08:10:28;;;;;;;1.93;0.60;;;;;;;10.70;100.00;98915.72;5079287;28;20718;-80
2023/04/01 08:13:06;;;;;;;1.27;0.53;;;;;;;10.74;99.62;98922.47;5080478;28;20209;-79
2023/04/01 08:15:41;;;;;;;1.30;0.50;;;;;;;10.80;99.68;98929.03;5078539;28;20210;-79
2023/04/01 08:18:17;;;;;;;0.83;0.40;;;;;;;10.84;99.11;98927.78;5079578;28;20733;-80
2023/04/01 08:20:49;;;;;;;1.40;0.80;;;;;;;10.84;98.02;98933.09;5081496;28;20218;-79
2023/04/01 08:23:20;;;;;;;1.97;0.60;;;;;;;10.88;98.24;98934.50;5081141;28;20216;-81
2023/04/01 08:25:55;;;;;;;1.57;0.60;;;;;;;10.92;97.66;98925.25;5081893;28;20189;-81
2023/04/01 08:28:27;;;;;;;0.53;0.50;;;;;;;10.98;97.73;98942.47;5081838;28;20217;-80
2023/04/01 08:31:01;;;;;;;1.43;0.60;;;;;;;11.02;97.58;98936.75;5081634;28;20198;-80
2023/04/01 08:33:32;;;;;;;2.03;0.77;;;;;;;11.06;97.37;98939.97;5081073;28;20228;-79
2023/04/01 08:36:06;;;;;;;2.10;0.73;;;;;;;11.08;96.88;98938.00;5079581;28;20207;-80
2023/04/01 08:38:38;;;;;;;2.63;0.77;;;;;;;11.13;96.87;98941.91;5080672;28;20189;-79
2023/04/01 08:41:28;;;;;;;2.03;0.40;;;;;;;11.19;96.35;98942.31;5080878;28;20204;-80
2023/04/01 08:44:21;;;;;;;4.40;0.70;;;;;;;11.23;95.86;98943.72;5082744;28;20231;-81
2023/04/01 08:47:09;;;;;;;2.47;1.00;;;;;;;11.26;95.84;98949.63;5081771;28;20268;-80
2023/04/01 08:49:57;;;;;;;1.67;0.60;;;;;;;11.33;95.61;98944.53;5081825;28;20209;-81
2023/04/01 08:52:35;;;;;;;0.60;0.30;;;;;;;11.38;94.92;98955.63;5080511;28;20286;-80
2023/04/01 08:55:24;;;;;;;1.60;0.60;;;;;;;11.41;94.47;98952.69;5082010;28;20261;-80
2023/04/01 08:58:03;;;;;;;2.53;0.40;;;;;;;11.44;94.25;98950.56;5080665;28;20211;-81
2023/04/01 09:00:33;;;;;;;1.70;0.30;;;;;;;11.46;93.71;98958.41;5080586;28;20248;-81
2023/04/01 09:03:37;;;;;;;1.63;0.53;;;;;;;11.52;93.29;98963.16;5080796;28;20202;-81
2023/04/01 09:06:25;;;;;;;1.37;0.70;;;;;;;11.57;92.45;98958.25;5079885;28;20299;-80
2023/04/01 09:09:18;;;;;;;2.17;0.60;;;;;;;11.61;91.04;98959.63;5080243;28;20206;-79
2023/04/01 09:12:02;;;;;;;0.77;0.60;;;;;;;11.69;91.55;98954.41;5066402;28;20665;-80
2023/04/01 09:14:56;;;;;;;1.13;0.40;;;;;;;11.76;90.85;98960.88;5079912;28;20610;-80
2023/04/01 09:17:41;;;;;;;0.97;0.40;;;;;;;11.84;90.61;98962.81;5080043;28;20196;-80
2023/04/01 09:20:35;;;;;;;1.23;0.33;;;;;;;11.89;89.03;98962.38;5079892;28;20208;-79
2023/04/01 09:23:28;;;;;;;0.90;0.50;;;;;;;11.89;88.05;98965.03;5075877;28;20211;-79
2023/04/01 09:26:31;;;;;;;1.50;0.40;;;;;;;11.91;88.13;98965.75;5059608;28;20212;-79
2023/04/01 09:29:06;;;;;;;0.87;0.70;;;;;;;11.96;88.07;98971.47;5053857;28;20205;-81
2023/04/01 09:32:12;;;;;;;1.73;0.50;;;;;;;12.01;87.58;98978.03;5059131;28;20227;-80
2023/04/01 09:34:54;;;;;;;0.63;0.40;;;;;;;12.02;87.25;98981.53;5049853;28;20247;-79
2023/04/01 09:37:34;;;;;;;0.43;0.20;;;;;;;12.04;87.50;98975.09;5058890;28;20219;-80
2023/04/01 09:40:18;;;;;;;1.80;0.50;;;;;;;12.10;87.26;98987.00;5058349;28;20190;-80
2023/04/01 09:42:55;;;;;;;3.50;0.60;;;;;;;12.12;87.19;98996.56;5058230;28;20229;-79
2023/04/01 09:45:38;;;;;;;2.53;0.40;;;;;;;12.15;86.79;98987.41;5055271;28;20221;-79
2023/04/01 09:48:26;;;;;;;1.20;0.40;;;;;;;12.18;86.11;98997.81;5054990;28;20192;-80
2023/04/01 09:51:06;;;;;;;3.67;0.90;;;;;;;12.17;86.14;98996.13;5055517;28;20206;-80
2023/04/01 09:53:53;;;;;;;0.90;0.43;;;;;;;12.18;86.27;99001.28;5053166;28;20618;-81
2023/04/01 09:56:41;;;;;;;1.50;0.40;;;;;;;12.20;85.84;99003.81;5055763;28;20189;-80
2023/04/01 09:59:41;;;;;;;0.77;0.40;;;;;;;12.22;86.10;99004.50;5057722;28;20189;-80
2023/04/01 10:02:54;;;;;;;1.17;0.43;;;;;;;12.27;86.11;99006.72;5057405;28;20201;-81
2023/04/01 10:05:50;;;;;;;0.70;0.40;;;;;;;12.30;86.40;99012.63;5057089;28;20731;-79
2023/04/01 10:08:52;;;;;;;1.50;0.60;;;;;;;12.35;86.70;99012.19;5023318;28;20301;-81
2023/04/01 10:11:54;;;;;;;1.50;0.60;;;;;;;12.39;86.46;99021.56;5053496;28;20215;-81
2023/04/01 10:14:46;;;;;;;1.17;0.33;;;;;;;12.43;86.36;99022.94;5057656;28;20238;-80
2023/04/01 10:17:42;;;;;;;2.00;0.57;;;;;;;12.47;86.57;99014.50;5057419;28;20196;-81
2023/04/01 10:20:41;;;;;;;0.80;0.33;;;;;;;12.53;86.57;99023.75;5058281;28;20232;-81
2023/04/01 10:23:29;;;;;;;0.87;0.47;;;;;;;12.56;86.64;99027.94;5058322;28;20198;-80
2023/04/01 10:26:29;;;;;;;2.07;0.30;;;;;;;12.55;85.96;99032.44;5059135;28;20452;-82
2023/04/01 10:29:25;;;;;;;2.73;0.43;;;;;;;12.53;85.73;99026.44;5058248;28;20212;-81
2023/04/01 10:32:10;;;;;;;1.53;0.53;;;;;;;12.55;86.63;99024.41;5036948;28;20272;-80
2023/04/01 10:35:04;;;;;;;1.27;0.47;;;;;;;12.62;87.36;99027.34;5058241;28;20311;-81
2023/04/01 10:38:03;;;;;;;0.30;0.30;;;;;;;12.66;86.98;99034.06;5059822;28;20276;-81
2023/04/01 10:40:58;;;;;;;0.67;0.40;;;;;;;12.65;86.86;99037.75;5060184;28;20213;-81
2023/04/01 10:43:54;;;;;;;0.50;0.47;;;;;;;12.65;86.90;99032.41;5065281;28;20229;-80
2023/04/01 10:47:05;;;;;;;1.97;0.53;;;;;;;12.64;87.75;99028.88;5063153;28;20247;-81
2023/04/01 10:49:51;;;;;;;0.90;0.43;;;;;;;12.68;87.72;99035.63;5023282;28;20832;-81
2023/04/01 10:53:07;;;;;;;1.03;0.47;;;;;;;12.70;87.37;99030.13;5054934;28;20613;-80
2023/04/01 10:55:50;;;;;;;0.97;0.40;;;;;;;12.68;87.27;99040.13;5056505;28;20193;-79
2023/04/01 10:59:07;;;;;;;0.80;0.40;;;;;;;12.67;87.56;99041.94;5055866;28;20193;-81
2023/04/01 11:02:28;;;;;;;1.23;0.40;;;;;;;12.70;87.96;99035.47;5055943;28;20231;-80
2023/04/01 11:05:27;;;;;;;1.67;0.50;;;;;;;12.72;88.15;99044.19;5031251;28;20313;-80
2023/04/01 11:08:35;;;;;;;1.67;0.47;;;;;;;12.76;88.33;99034.84;5055495;28;20618;-80
2023/04/01 11:11:48;;;;;;;1.83;0.80;;;;;;;12.75;87.76;99042.03;5035909;28;20210;-80
2023/04/01 11:15:02;;;;;;;1.23;0.80;;;;;;;12.76;87.36;99041.03;5036424;28;20237;-79
2023/04/01 11:18:02;;;;;;;0.67;0.50;;;;;;;12.82;87.95;99051.13;5040986;28;20195;-79
2023/04/01 11:21:11;;;;;;;0.77;0.70;;;;;;;12.85;87.59;99052.66;5041355;28;20198;-79
2023/04/01 11:24:18;;;;;;;2.77;0.90;;;;;;;12.89;88.08;99056.72;5019082;28;20883;-79
2023/04/01 11:26:57;;;;;;;1.73;0.63;;;;;;;12.94;88.23;99049.06;5032731;28;20561;-79
2023/04/01 11:29:58;;;;;;;0.73;0.40;;;;;;;12.96;88.26;99057.78;5047842;28;20196;-79
2023/04/01 11:32:42;;;;;;;1.93;0.87;;;;;;;12.96;87.63;99065.78;5078053;28;20184;-79
2023/04/01 11:36:00;;;;;;;2.53;0.60;;;;;;;12.96;87.85;99062.28;5077141;28;20232;-79
2023/04/01 11:38:41;;;;;;;0.93;0.43;;;;;;;12.95;86.86;99066.78;5016755;28;20222;-80
2023/04/01 11:41:25;;;;;;;1.20;0.63;;;;;;;12.95;86.87;99064.13;5013978;28;20201;-78
2023/04/01 11:44:09;;;;;;;1.73;0.80;;;;;;;12.94;86.24;99069.59;5061671;28;20220;-79
2023/04/01 11:46:48;;;;;;;1.43;0.70;;;;;;;12.90;85.42;99068.25;5078246;28;20200;-79
2023/04/01 11:49:30;;;;;;;2.00;0.50;;;;;;;12.86;85.15;99073.88;5076428;28;20192;-80
2023/04/01 11:52:13;;;;;;;0.63;0.60;;;;;;;12.83;84.46;99073.34;5076949;28;20542;-79
2023/04/01 11:54:58;;;;;;;2.83;2.20;;;;;;;12.83;84.94;99078.69;5076962;28;20229;-80
2023/04/01 11:57:47;;;;;;;1.63;0.93;;;;;;;12.85;84.51;99087.41;5077369;28;20196;-79
2023/04/01 12:00:41;;;;;;;1.73;0.73;;;;;;;12.89;84.59;99083.44;5076731;28;20197;-79
2023/04/01 12:03:25;;;;;;;1.90;0.60;;;;;;;12.92;85.11;99091.13;5075837;28;20205;-81
2023/04/01 12:05:59;;;;;;;0.90;0.50;;;;;;;12.94;84.79;99086.47;5076185;28;20232;-80
2023/04/01 12:08:37;;;;;;;0.60;0.30;;;;;;;12.98;85.19;99081.69;5076930;28;20614;-79
2023/04/01 12:11:15;;;;;;;0.67;0.40;;;;;;;13.01;85.16;99092.06;5077123;28;20216;-80
2023/04/01 12:13:51;;;;;;;1.07;0.80;;;;;;;13.00;84.32;99091.22;5075760;28;20327;-79
2023/04/01 12:16:37;;;;;;;1.33;0.40;;;;;;;13.01;83.80;99098.25;5074913;28;20212;-79
2023/04/01 12:19:14;;;;;;;1.07;0.40;;;;;;;13.01;84.00;99105.44;5073766;28;20197;-80
2023/04/01 12:21:50;;;;;;;0.50;0.40;;;;;;;13.02;83.52;99109.78;5073863;28;20545;-80
2023/04/01 12:24:45;;;;;;;0.63;0.40;;;;;;;13.03;83.74;99104.31;5073473;28;20216;-80